Time;durP1;ratioP1;P1;durP2;ratioP2;P2;SDS_P1;SDS_P2;PMS_P1;PMS_P2;Temp;Humidity;BMP_temperature;BMP_pressure;BME280_temperature;BME280_humidity;BME280_pressure;Samples;Min_cycle;Max_cycle;Signal;HPM_P1;HPM_P2
2023/09/18 00:01:22;;;;;;;2.05;1.88;;;21.30;99.90;;;;;;5028611;28;20224;-67
2023/09/18 00:03:50;;;;;;;1.90;1.80;;;21.40;99.90;;;;;;5026633;28;20208;-67
2023/09/18 00:06:19;;;;;;;1.70;1.60;;;21.60;99.90;;;;;;5026939;28;20582;-67
2023/09/18 00:08:48;;;;;;;1.70;1.60;;;21.60;99.90;;;;;;5027365;28;20290;-66
2023/09/18 00:11:15;;;;;;;1.55;1.45;;;21.60;99.90;;;;;;5028760;28;20560;-66
2023/09/18 00:13:44;;;;;;;2.17;1.80;;;21.50;99.90;;;;;;5028494;28;20323;-66
2023/09/18 00:16:12;;;;;;;1.70;1.60;;;21.40;99.90;;;;;;5032838;28;20258;-66
2023/09/18 00:18:41;;;;;;;2.45;2.17;;;21.40;99.90;;;;;;5028386;28;20239;-66
2023/09/18 00:21:10;;;;;;;4.47;1.95;;;21.50;99.90;;;;;;5029781;28;20224;-66
2023/09/18 00:23:39;;;;;;;1.63;1.52;;;21.60;99.90;;;;;;5028898;28;20212;-67
2023/09/18 00:26:07;;;;;;;1.85;1.75;;;21.50;99.90;;;;;;5029088;28;20675;-66
2023/09/18 00:28:35;;;;;;;2.13;1.42;;;21.50;99.90;;;;;;5029341;28;20248;-67
2023/09/18 00:31:03;;;;;;;2.20;2.00;;;21.50;99.90;;;;;;5031190;28;20197;-67
2023/09/18 00:33:31;;;;;;;3.72;1.85;;;21.40;99.90;;;;;;5030287;28;20211;-66
2023/09/18 00:35:59;;;;;;;1.73;1.40;;;21.30;99.90;;;;;;5031141;28;20200;-66
2023/09/18 00:38:27;;;;;;;2.65;2.03;;;21.30;99.90;;;;;;5030713;28;20710;-67
2023/09/18 00:40:56;;;;;;;2.22;1.60;;;21.30;99.90;;;;;;5025266;28;20229;-66
2023/09/18 00:43:24;;;;;;;1.60;1.50;;;21.20;99.90;;;;;;5031462;28;20288;-66
2023/09/18 00:45:52;;;;;;;3.13;1.50;;;21.20;99.90;;;;;;5030430;28;20283;-66
2023/09/18 00:48:20;;;;;;;2.92;1.50;;;21.10;99.90;;;;;;5028759;28;20255;-66
2023/09/18 00:50:49;;;;;;;1.52;1.42;;;21.00;99.90;;;;;;5028677;28;20205;-66
2023/09/18 00:53:21;;;;;;;2.22;1.80;;;20.90;99.90;;;;;;5013611;28;20205;-67
2023/09/18 00:55:51;;;;;;;2.10;1.95;;;20.90;99.90;;;;;;5021009;28;20599;-69
2023/09/18 00:58:20;;;;;;;2.92;1.50;;;20.90;99.90;;;;;;5013322;28;20232;-67
2023/09/18 01:00:50;;;;;;;2.47;1.70;;;20.90;99.90;;;;;;5014073;28;20244;-66
2023/09/18 01:03:19;;;;;;;2.13;1.80;;;20.90;99.90;;;;;;5019240;28;20267;-66
2023/09/18 01:05:47;;;;;;;2.63;2.28;;;20.90;99.90;;;;;;5022011;28;20205;-67
2023/09/18 01:08:15;;;;;;;2.50;1.55;;;20.90;99.90;;;;;;5027440;28;20649;-66
2023/09/18 01:10:54;;;;;;;2.00;1.63;;;20.90;99.90;;;;;;5012864;28;20209;-66
2023/09/18 01:13:30;;;;;;;1.90;1.63;;;20.80;99.90;;;;;;5030049;28;20208;-67
2023/09/18 01:16:05;;;;;;;4.03;2.00;;;20.80;99.90;;;;;;5024208;28;20213;-67
2023/09/18 01:18:33;;;;;;;2.40;1.80;;;20.80;99.90;;;;;;5017196;28;20266;-67
2023/09/18 01:21:01;;;;;;;4.57;1.90;;;20.80;99.90;;;;;;5027570;28;20217;-67
2023/09/18 01:23:30;;;;;;;1.40;1.30;;;20.70;99.90;;;;;;5020690;28;20212;-70
2023/09/18 01:25:58;;;;;;;2.75;2.35;;;20.70;99.90;;;;;;5012297;28;20209;-66
2023/09/18 01:28:26;;;;;;;2.38;1.70;;;20.90;99.90;;;;;;5012880;28;20231;-68
2023/09/18 01:30:54;;;;;;;1.90;1.80;;;21.10;99.90;;;;;;5012624;28;20777;-65
2023/09/18 01:33:23;;;;;;;1.77;1.67;;;21.20;99.90;;;;;;5018393;28;20593;-66
2023/09/18 01:35:54;;;;;;;1.90;1.80;;;21.30;99.90;;;;;;5014058;28;20304;-66
2023/09/18 01:38:23;;;;;;;2.13;2.00;;;21.40;99.90;;;;;;5012435;28;20726;-66
2023/09/18 01:40:54;;;;;;;3.92;1.88;;;21.30;99.90;;;;;;5020132;28;20221;-67
2023/09/18 01:43:22;;;;;;;1.80;1.70;;;21.20;99.90;;;;;;5032081;28;20675;-67
2023/09/18 01:45:50;;;;;;;3.25;2.00;;;21.20;99.90;;;;;;5023395;28;20220;-68
2023/09/18 01:48:18;;;;;;;2.15;1.95;;;21.30;99.90;;;;;;5018673;28;20221;-68
2023/09/18 01:50:46;;;;;;;2.00;1.90;;;21.40;99.90;;;;;;5012484;28;20209;-67
2023/09/18 01:53:14;;;;;;;1.70;1.52;;;21.60;99.90;;;;;;5012370;28;20216;-67
2023/09/18 01:55:42;;;;;;;2.65;1.70;;;21.70;99.90;;;;;;5012123;28;20232;-68
2023/09/18 01:58:14;;;;;;;4.35;2.20;;;21.70;99.90;;;;;;5029019;28;20228;-68
2023/09/18 02:00:42;;;;;;;2.53;1.80;;;21.90;99.90;;;;;;5029282;28;20266;-67
2023/09/18 02:03:11;;;;;;;1.65;1.40;;;22.00;99.90;;;;;;5021495;28;20200;-68
2023/09/18 02:05:59;;;;;;;3.50;2.38;;;22.00;99.90;;;;;;5028719;28;20202;-68
2023/09/18 02:08:27;;;;;;;3.20;1.73;;;22.00;99.90;;;;;;5017782;28;20667;-69
2023/09/18 02:10:55;;;;;;;1.85;1.75;;;22.00;99.90;;;;;;5029753;28;20907;-68
2023/09/18 02:13:24;;;;;;;2.10;1.90;;;22.00;99.90;;;;;;5029238;28;20574;-67
2023/09/18 02:15:52;;;;;;;2.42;1.85;;;22.00;99.90;;;;;;5024235;28;20216;-66
2023/09/18 02:18:20;;;;;;;2.45;1.80;;;21.80;99.90;;;;;;5021323;28;20702;-67
2023/09/18 02:20:49;;;;;;;3.22;1.98;;;21.70;99.90;;;;;;5029429;28;20215;-68
2023/09/18 02:23:18;;;;;;;3.85;2.03;;;21.70;99.90;;;;;;5021836;28;20227;-67
2023/09/18 02:25:47;;;;;;;3.88;2.08;;;21.70;99.90;;;;;;5023269;28;20219;-66
2023/09/18 02:28:15;;;;;;;7.68;1.90;;;21.60;99.90;;;;;;5053819;22;20243;-72
2023/09/18 02:30:45;;;;;;;2.05;1.85;;;21.60;99.90;;;;;;5030746;28;20208;-73
2023/09/18 02:33:13;;;;;;;4.70;2.45;;;21.50;99.90;;;;;;5037615;28;20196;-72
2023/09/18 02:35:43;;;;;;;2.05;1.95;;;21.40;99.90;;;;;;5040684;28;20624;-71
2023/09/18 02:38:11;;;;;;;3.45;1.90;;;21.40;99.90;;;;;;5036159;28;20578;-70
2023/09/18 02:40:39;;;;;;;2.30;2.10;;;21.40;99.90;;;;;;5028766;28;20205;-70
2023/09/18 02:43:07;;;;;;;5.68;2.30;;;21.50;99.90;;;;;;5028996;28;20254;-70
2023/09/18 02:45:35;;;;;;;1.90;1.70;;;21.50;99.90;;;;;;5032865;28;20192;-70
2023/09/18 02:48:05;;;;;;;4.05;2.40;;;21.60;99.90;;;;;;5038266;28;20662;-70
2023/09/18 02:50:32;;;;;;;2.88;1.90;;;21.60;99.90;;;;;;5039101;28;20208;-71
2023/09/18 02:53:01;;;;;;;3.08;1.95;;;21.60;99.90;;;;;;5031786;28;20257;-71
2023/09/18 02:55:29;;;;;;;3.70;1.90;;;21.60;99.90;;;;;;5031667;28;20636;-71
2023/09/18 02:57:56;;;;;;;2.55;2.35;;;21.60;99.90;;;;;;5033102;28;20207;-71
2023/09/18 03:00:24;;;;;;;2.45;1.90;;;21.60;99.90;;;;;;5032887;28;20200;-71
2023/09/18 03:03:11;;;;;;;3.92;2.50;;;21.50;99.90;;;;;;5031107;28;20625;-71
2023/09/18 03:05:40;;;;;;;3.80;2.88;;;21.50;99.90;;;;;;5031378;28;20210;-70
2023/09/18 03:08:09;;;;;;;1.75;1.50;;;21.40;99.90;;;;;;5035006;28;20313;-70
2023/09/18 03:10:39;;;;;;;2.65;1.80;;;21.50;99.90;;;;;;5035004;28;20284;-70
2023/09/18 03:13:08;;;;;;;2.35;1.80;;;21.50;99.90;;;;;;5030603;28;20787;-70
2023/09/18 03:15:37;;;;;;;2.05;1.85;;;21.50;99.90;;;;;;5038382;28;20203;-70
2023/09/18 03:18:06;;;;;;;3.20;1.67;;;21.50;99.90;;;;;;5031697;28;20762;-71
2023/09/18 03:20:36;;;;;;;2.00;1.85;;;21.50;99.90;;;;;;5033076;28;20199;-71
2023/09/18 03:23:04;;;;;;;1.95;1.85;;;21.70;99.90;;;;;;5032356;28;20216;-73
2023/09/18 03:25:32;;;;;;;2.17;1.98;;;21.60;99.90;;;;;;5040498;28;20288;-71
2023/09/18 03:28:19;;;;;;;3.08;2.28;;;21.60;99.90;;;;;;5032979;28;20237;-71
2023/09/18 03:30:47;;;;;;;2.72;2.10;;;21.60;99.90;;;;;;5034264;28;20211;-71
2023/09/18 03:33:15;;;;;;;2.20;2.00;;;21.60;99.90;;;;;;5030464;28;20197;-71
2023/09/18 03:35:49;;;;;;;2.40;1.90;;;21.50;99.90;;;;;;5029642;28;20212;-71
2023/09/18 03:38:17;;;;;;;2.75;1.60;;;21.40;99.90;;;;;;5029036;28;20219;-71
2023/09/18 03:40:45;;;;;;;3.55;2.30;;;21.40;99.90;;;;;;5040262;28;20279;-71
2023/09/18 03:43:13;;;;;;;2.72;2.53;;;21.40;99.90;;;;;;5033026;28;20225;-72
2023/09/18 03:45:41;;;;;;;4.18;2.60;;;21.40;99.90;;;;;;5033459;28;20212;-71
2023/09/18 03:48:10;;;;;;;2.42;2.08;;;21.40;99.90;;;;;;5030724;28;20219;-71
2023/09/18 03:50:39;;;;;;;2.00;1.90;;;21.30;99.90;;;;;;5029043;28;20204;-73
2023/09/18 03:53:10;;;;;;;2.20;2.00;;;21.30;99.90;;;;;;5030562;28;20203;-72
2023/09/18 03:55:38;;;;;;;3.20;1.98;;;21.30;99.90;;;;;;5030067;28;20403;-72
2023/09/18 03:58:06;;;;;;;2.38;1.70;;;21.30;99.90;;;;;;5036175;28;20208;-71
2023/09/18 04:00:34;;;;;;;1.63;1.52;;;21.30;99.90;;;;;;5030267;28;20275;-72
2023/09/18 04:03:02;;;;;;;2.17;2.00;;;21.20;99.90;;;;;;5029301;28;20225;-73
2023/09/18 04:05:30;;;;;;;3.75;2.30;;;21.20;99.90;;;;;;5037861;28;20192;-73
2023/09/18 04:07:58;;;;;;;2.85;2.22;;;21.20;99.90;;;;;;5031473;28;20225;-73
2023/09/18 04:10:27;;;;;;;2.13;2.00;;;21.30;99.90;;;;;;5036137;28;20663;-72
2023/09/18 04:12:55;;;;;;;1.60;1.50;;;21.30;99.90;;;;;;5024291;28;20207;-71
2023/09/18 04:15:24;;;;;;;3.05;2.15;;;21.30;99.90;;;;;;5032907;28;20581;-73
2023/09/18 04:17:52;;;;;;;2.90;1.88;;;21.30;99.90;;;;;;5037134;28;20212;-73
2023/09/18 04:20:20;;;;;;;1.60;1.50;;;21.30;99.90;;;;;;5025645;28;20224;-72
2023/09/18 04:22:50;;;;;;;1.70;1.60;;;21.40;99.90;;;;;;5018979;28;20967;-72
2023/09/18 04:25:18;;;;;;;8.85;2.08;;;21.30;99.90;;;;;;5021083;28;20847;-73
2023/09/18 04:27:50;;;;;;;2.13;1.70;;;21.30;99.90;;;;;;5024917;28;20210;-72
2023/09/18 04:30:19;;;;;;;2.25;2.05;;;21.30;99.90;;;;;;5020328;28;20612;-72
2023/09/18 04:32:48;;;;;;;2.38;2.17;;;21.30;99.90;;;;;;5023589;28;20215;-72
2023/09/18 04:35:16;;;;;;;2.10;1.90;;;21.20;99.90;;;;;;5021861;28;20295;-72
2023/09/18 04:37:44;;;;;;;2.60;2.15;;;21.00;99.90;;;;;;5022809;28;20237;-73
2023/09/18 04:40:12;;;;;;;4.75;1.80;;;20.90;99.90;;;;;;5022558;28;20224;-73
2023/09/18 04:42:40;;;;;;;2.85;1.70;;;21.00;99.90;;;;;;5022628;28;20291;-73
2023/09/18 04:45:10;;;;;;;2.42;2.22;;;21.00;99.90;;;;;;5022805;28;20205;-73
2023/09/18 04:47:38;;;;;;;2.13;1.75;;;21.10;99.90;;;;;;5022934;28;20236;-72
2023/09/18 04:50:09;;;;;;;3.08;1.98;;;21.20;99.90;;;;;;5020690;28;20286;-72
2023/09/18 04:52:42;;;;;;;3.35;1.85;;;21.30;99.90;;;;;;5023134;28;20212;-73
2023/09/18 04:55:11;;;;;;;2.00;1.80;;;21.30;99.90;;;;;;5022823;28;20211;-73
2023/09/18 04:57:39;;;;;;;3.70;2.05;;;21.20;99.90;;;;;;5024787;28;20709;-73
2023/09/18 05:00:08;;;;;;;1.90;1.50;;;21.20;99.90;;;;;;5021067;28;20230;-73
2023/09/18 05:02:46;;;;;;;3.38;2.38;;;21.20;99.90;;;;;;5020683;28;20578;-73
2023/09/18 05:05:14;;;;;;;2.13;1.90;;;21.10;99.90;;;;;;5022841;28;20211;-72
2023/09/18 05:07:43;;;;;;;2.88;2.10;;;21.20;99.90;;;;;;5021815;28;20239;-73
2023/09/18 05:10:11;;;;;;;2.35;2.15;;;21.10;99.90;;;;;;5019244;28;20232;-71
2023/09/18 05:12:41;;;;;;;2.38;2.17;;;21.10;99.90;;;;;;5023070;28;20612;-73
2023/09/18 05:15:12;;;;;;;3.08;2.10;;;21.00;99.90;;;;;;5021070;28;20201;-73
2023/09/18 05:17:46;;;;;;;1.95;1.75;;;21.00;99.90;;;;;;5022714;28;20441;-73
2023/09/18 05:20:17;;;;;;;2.85;2.38;;;21.00;99.90;;;;;;5018378;28;20235;-72
2023/09/18 05:22:46;;;;;;;2.80;1.70;;;21.10;99.90;;;;;;5021971;28;20223;-72
2023/09/18 05:25:15;;;;;;;4.35;2.10;;;21.00;99.90;;;;;;5020372;28;20207;-71
2023/09/18 05:27:44;;;;;;;11.88;1.95;;;21.10;99.90;;;;;;5020985;28;20216;-71
2023/09/18 05:30:15;;;;;;;2.55;1.98;;;21.00;99.90;;;;;;5019132;28;20241;-72
2023/09/18 05:32:45;;;;;;;1.95;1.73;;;21.10;99.90;;;;;;5023899;28;20220;-71
2023/09/18 05:35:13;;;;;;;2.20;1.67;;;21.00;99.90;;;;;;5021517;28;20271;-72
2023/09/18 05:37:43;;;;;;;4.45;2.40;;;20.80;99.90;;;;;;5022568;28;20290;-72
2023/09/18 05:40:13;;;;;;;2.80;1.70;;;20.60;99.90;;;;;;5019866;28;20228;-72
2023/09/18 05:42:43;;;;;;;2.00;1.60;;;20.40;99.90;;;;;;5023045;28;20543;-71
2023/09/18 05:45:12;;;;;;;2.72;2.05;;;20.30;99.90;;;;;;5021853;28;20204;-72
2023/09/18 05:47:42;;;;;;;2.45;2.25;;;20.30;99.90;;;;;;5020070;28;20213;-73
2023/09/18 05:50:14;;;;;;;1.75;1.65;;;20.40;99.90;;;;;;5019607;28;20228;-72
2023/09/18 05:52:44;;;;;;;4.55;2.10;;;20.50;99.90;;;;;;5021931;28;20301;-72
2023/09/18 05:55:13;;;;;;;2.10;1.98;;;20.30;99.90;;;;;;5030144;28;20201;-72
2023/09/18 05:57:41;;;;;;;4.40;2.10;;;20.20;99.90;;;;;;5030061;28;20638;-73
2023/09/18 06:00:13;;;;;;;3.13;2.83;;;20.10;99.90;;;;;;5030965;28;20721;-74
2023/09/18 06:02:41;;;;;;;4.13;1.75;;;20.20;99.90;;;;;;5032533;28;20681;-73
2023/09/18 06:05:11;;;;;;;2.67;2.47;;;20.30;99.90;;;;;;5029931;28;20224;-71
2023/09/18 06:07:39;;;;;;;1.75;1.60;;;20.30;99.90;;;;;;5035826;28;20293;-73
2023/09/18 06:10:10;;;;;;;2.63;1.50;;;20.20;99.90;;;;;;5034099;28;20307;-72
2023/09/18 06:12:39;;;;;;;2.38;1.75;;;20.20;99.90;;;;;;5028030;28;20259;-72
2023/09/18 06:15:09;;;;;;;3.72;2.05;;;20.20;99.90;;;;;;5029327;28;20211;-69
2023/09/18 06:17:39;;;;;;;4.18;2.67;;;20.30;99.90;;;;;;5029486;28;20204;-72
2023/09/18 06:20:10;;;;;;;2.95;1.60;;;20.30;99.90;;;;;;5028976;28;20657;-67
2023/09/18 06:22:39;;;;;;;5.07;3.03;;;20.30;99.90;;;;;;5031394;28;20231;-67
2023/09/18 06:25:09;;;;;;;3.30;1.92;;;20.30;99.90;;;;;;5030951;28;20217;-67
2023/09/18 06:27:39;;;;;;;2.80;2.05;;;20.10;99.90;;;;;;5031597;28;20201;-67
2023/09/18 06:30:09;;;;;;;2.00;1.85;;;20.10;99.90;;;;;;5031321;28;20327;-67
2023/09/18 06:32:37;;;;;;;3.00;1.75;;;20.10;99.90;;;;;;5023856;28;20205;-68
2023/09/18 06:35:06;;;;;;;2.10;1.50;;;20.00;99.90;;;;;;5031202;28;20263;-67
2023/09/18 06:37:34;;;;;;;3.08;1.83;;;20.00;99.90;;;;;;5023442;28;20204;-67
2023/09/18 06:40:03;;;;;;;2.17;1.75;;;20.00;99.90;;;;;;5030928;28;20608;-67
2023/09/18 06:42:33;;;;;;;6.68;3.05;;;20.10;99.90;;;;;;5029085;28;20537;-67
2023/09/18 06:45:02;;;;;;;2.97;2.20;;;20.10;99.90;;;;;;5030832;28;20243;-67
2023/09/18 06:47:30;;;;;;;5.00;2.55;;;20.00;99.90;;;;;;5030594;28;20213;-67
2023/09/18 06:49:59;;;;;;;2.95;2.63;;;20.00;99.90;;;;;;5031252;28;20231;-66
2023/09/18 06:52:29;;;;;;;5.57;2.40;;;20.10;99.90;;;;;;5030925;28;20211;-67
2023/09/18 06:54:57;;;;;;;2.08;1.98;;;20.10;99.90;;;;;;5030398;28;20201;-67
2023/09/18 06:57:25;;;;;;;4.55;2.30;;;20.10;99.90;;;;;;5030975;28;20209;-66
2023/09/18 06:59:55;;;;;;;2.88;2.63;;;20.00;99.90;;;;;;5030945;28;20350;-67
2023/09/18 07:02:23;;;;;;;2.35;2.15;;;19.90;99.90;;;;;;5030760;28;20219;-66
2023/09/18 07:04:51;;;;;;;3.25;2.10;;;19.90;99.90;;;;;;5030608;28;20217;-67
2023/09/18 07:07:24;;;;;;;3.88;2.40;;;19.80;99.90;;;;;;5030505;28;20208;-67
2023/09/18 07:09:53;;;;;;;1.70;1.60;;;19.80;99.90;;;;;;5031083;28;20224;-67
2023/09/18 07:12:32;;;;;;;2.30;2.10;;;19.70;99.90;;;;;;5030863;28;23371;-66
2023/09/18 07:15:04;;;;;;;2.10;1.80;;;19.70;99.90;;;;;;5030052;28;20223;-67
2023/09/18 07:17:33;;;;;;;3.05;1.52;;;19.70;99.90;;;;;;5030746;28;20355;-67
2023/09/18 07:20:09;;;;;;;9.73;2.28;;;19.70;99.90;;;;;;5030685;28;20251;-66
2023/09/18 07:22:37;;;;;;;3.70;2.25;;;19.80;99.90;;;;;;5030678;28;20644;-67
2023/09/18 07:25:07;;;;;;;3.05;1.90;;;19.80;99.90;;;;;;5029142;28;20244;-67
2023/09/18 07:27:36;;;;;;;3.28;1.98;;;19.80;99.90;;;;;;5030623;28;20211;-67
2023/09/18 07:30:10;;;;;;;2.10;1.90;;;19.80;99.90;;;;;;5030104;28;20246;-66
2023/09/18 07:32:40;;;;;;;3.95;2.08;;;19.80;99.90;;;;;;5030569;28;20204;-67
2023/09/18 07:35:09;;;;;;;2.38;1.80;;;19.90;99.90;;;;;;5030460;28;20259;-66
2023/09/18 07:37:37;;;;;;;3.25;1.65;;;19.90;99.90;;;;;;5030136;28;20266;-67
2023/09/18 07:40:07;;;;;;;3.17;1.70;;;19.90;99.90;;;;;;5030655;28;20220;-67
2023/09/18 07:42:35;;;;;;;3.20;1.75;;;20.00;99.90;;;;;;5022745;28;20204;-66
2023/09/18 07:45:03;;;;;;;3.30;2.33;;;20.10;99.90;;;;;;5030046;28;20224;-67
2023/09/18 07:47:33;;;;;;;3.45;1.70;;;20.20;99.90;;;;;;5030341;28;20200;-67
2023/09/18 07:50:01;;;;;;;3.33;2.00;;;20.20;99.90;;;;;;5030705;28;20675;-67
2023/09/18 07:52:29;;;;;;;1.95;1.30;;;20.30;99.90;;;;;;5030528;28;20607;-67
2023/09/18 07:54:58;;;;;;;1.40;1.20;;;20.30;99.90;;;;;;5030177;28;20205;-67
2023/09/18 07:57:28;;;;;;;1.35;1.25;;;20.40;99.90;;;;;;5030001;28;20247;-67
2023/09/18 07:59:56;;;;;;;2.80;1.70;;;20.50;99.90;;;;;;5033022;28;20228;-67
2023/09/18 08:02:25;;;;;;;4.40;1.60;;;20.50;99.90;;;;;;5034115;28;20204;-67
2023/09/18 08:04:54;;;;;;;2.60;1.30;;;20.50;99.90;;;;;;5033041;28;20295;-67
2023/09/18 08:07:22;;;;;;;2.88;1.77;;;20.60;99.90;;;;;;5034197;28;20200;-67
2023/09/18 08:09:50;;;;;;;7.60;1.92;;;20.60;99.90;;;;;;5034181;28;20227;-67
2023/09/18 08:12:19;;;;;;;6.75;1.90;;;20.60;99.90;;;;;;5033727;28;20197;-66
2023/09/18 08:14:48;;;;;;;5.13;1.70;;;20.70;99.90;;;;;;5033902;28;20207;-67
2023/09/18 08:17:16;;;;;;;5.60;2.10;;;20.70;99.90;;;;;;5034139;28;20208;-66
2023/09/18 08:19:45;;;;;;;7.13;2.05;;;20.70;99.90;;;;;;5033847;28;20236;-67
2023/09/18 08:22:16;;;;;;;2.95;1.52;;;20.80;99.90;;;;;;5033877;28;20224;-66
2023/09/18 08:24:45;;;;;;;6.20;1.67;;;20.80;99.90;;;;;;5025494;28;20227;-67
2023/09/18 08:27:16;;;;;;;2.65;1.80;;;20.90;99.90;;;;;;5033965;28;20667;-67
2023/09/18 08:29:44;;;;;;;7.28;1.67;;;21.00;99.90;;;;;;5034738;22;20324;-65
2023/09/18 08:32:12;;;;;;;4.30;1.40;;;21.00;99.90;;;;;;5001294;28;20220;-65
2023/09/18 08:34:40;;;;;;;4.75;1.88;;;21.10;99.90;;;;;;5002314;28;20206;-65
2023/09/18 08:37:09;;;;;;;1.60;1.50;;;21.20;99.90;;;;;;5000976;28;20205;-65
2023/09/18 08:39:38;;;;;;;3.50;2.83;;;21.20;99.90;;;;;;5003423;28;20348;-64
2023/09/18 08:42:08;;;;;;;5.70;1.23;;;21.30;99.90;;;;;;4994220;28;20216;-65
2023/09/18 08:44:39;;;;;;;2.15;1.55;;;21.30;99.90;;;;;;4995765;28;20233;-65
2023/09/18 08:47:11;;;;;;;2.55;1.17;;;21.30;99.90;;;;;;4999403;28;20202;-64
2023/09/18 08:49:40;;;;;;;2.90;0.90;;;21.30;99.90;;;;;;4993871;28;20229;-65
2023/09/18 08:52:09;;;;;;;2.67;1.35;;;21.30;99.90;;;;;;5000524;28;20201;-65
2023/09/18 08:54:39;;;;;;;6.18;1.70;;;21.20;99.90;;;;;;5004919;28;20202;-64
2023/09/18 08:57:07;;;;;;;6.88;1.42;;;21.20;99.90;;;;;;5007506;28;20715;-65
2023/09/18 08:59:37;;;;;;;1.77;1.00;;;21.20;99.90;;;;;;5001456;28;20225;-64
2023/09/18 09:02:05;;;;;;;6.13;1.40;;;21.20;99.90;;;;;;4993875;28;20210;-65
2023/09/18 09:04:32;;;;;;;4.20;1.08;;;21.20;99.90;;;;;;4994660;28;20213;-64
2023/09/18 09:07:00;;;;;;;2.65;1.77;;;21.20;99.90;;;;;;5008413;28;20206;-65
2023/09/18 09:09:29;;;;;;;4.28;1.35;;;21.10;99.90;;;;;;4993573;28;20553;-64
2023/09/18 09:11:58;;;;;;;2.10;0.85;;;21.10;99.90;;;;;;4993592;28;20210;-64
2023/09/18 09:14:28;;;;;;;1.80;0.90;;;21.10;99.90;;;;;;5000634;28;20213;-66
2023/09/18 09:16:57;;;;;;;2.45;1.00;;;21.10;99.90;;;;;;5008854;28;20233;-65
2023/09/18 09:19:30;;;;;;;5.32;1.10;;;21.00;99.90;;;;;;4993306;28;20225;-66
2023/09/18 09:22:00;;;;;;;1.17;0.90;;;21.00;99.90;;;;;;4993417;28;20665;-65
2023/09/18 09:24:39;;;;;;;5.35;0.95;;;21.00;99.90;;;;;;4993139;28;20708;-64
2023/09/18 09:27:09;;;;;;;1.40;0.82;;;21.10;99.90;;;;;;4993388;28;20210;-65
2023/09/18 09:29:37;;;;;;;4.80;1.58;;;21.10;99.90;;;;;;4992739;28;20314;-64
2023/09/18 09:32:16;;;;;;;1.80;0.90;;;21.10;99.90;;;;;;4993349;28;20668;-65
2023/09/18 09:34:46;;;;;;;3.55;0.70;;;21.10;99.90;;;;;;4992287;28;20653;-65
2023/09/18 09:37:14;;;;;;;0.85;0.80;;;21.10;99.90;;;;;;4993150;28;20209;-65
2023/09/18 09:39:52;;;;;;;1.25;0.70;;;21.20;99.90;;;;;;4995312;28;20236;-66
2023/09/18 09:42:24;;;;;;;1.38;0.90;;;21.10;99.90;;;;;;5004055;28;20511;-65
2023/09/18 09:45:03;;;;;;;3.55;0.88;;;21.20;99.90;;;;;;4996590;28;20205;-64
2023/09/18 09:47:34;;;;;;;0.70;0.52;;;21.20;99.90;;;;;;4995574;28;20292;-64
2023/09/18 09:50:09;;;;;;;2.00;1.05;;;21.20;99.90;;;;;;4992641;28;20255;-65
2023/09/18 09:52:43;;;;;;;1.10;0.60;;;21.20;99.90;;;;;;4987803;28;20260;-65
2023/09/18 09:55:20;;;;;;;0.60;0.50;;;21.10;99.90;;;;;;4992873;28;20213;-64
2023/09/18 09:57:51;;;;;;;0.70;0.60;;;21.20;99.90;;;;;;4992667;28;20238;-64
2023/09/18 10:00:26;;;;;;;3.45;1.23;;;21.20;99.90;;;;;;4999434;28;20228;-65
2023/09/18 10:02:59;;;;;;;0.82;0.63;;;21.30;99.90;;;;;;4985109;28;20224;-64
2023/09/18 10:05:31;;;;;;;1.40;0.82;;;21.30;99.90;;;;;;4999353;28;20313;-64
2023/09/18 10:08:00;;;;;;;1.13;0.65;;;21.50;99.90;;;;;;4985512;28;20202;-64
2023/09/18 10:10:36;;;;;;;0.70;0.60;;;21.60;99.90;;;;;;4992294;28;20718;-63
2023/09/18 10:13:11;;;;;;;1.83;0.85;;;21.70;99.90;;;;;;4992770;28;20568;-65
2023/09/18 10:15:42;;;;;;;0.80;0.60;;;21.70;99.90;;;;;;5000203;28;20244;-65
2023/09/18 10:18:23;;;;;;;0.70;0.50;;;21.60;99.90;;;;;;4992520;28;20217;-64
2023/09/18 10:20:57;;;;;;;1.40;0.85;;;21.60;99.90;;;;;;4991436;28;20260;-64
2023/09/18 10:23:40;;;;;;;0.80;0.70;;;21.60;99.90;;;;;;4992065;28;20229;-64
2023/09/18 10:26:10;;;;;;;0.70;0.60;;;21.50;99.90;;;;;;4991180;28;20245;-64
2023/09/18 10:28:41;;;;;;;2.65;1.02;;;21.50;99.90;;;;;;4993834;28;20210;-64
2023/09/18 10:31:11;;;;;;;1.00;0.70;;;21.60;99.90;;;;;;4992187;28;20618;-64
2023/09/18 10:33:40;;;;;;;0.85;0.77;;;21.60;99.90;;;;;;4990969;28;20201;-64
2023/09/18 10:36:09;;;;;;;0.80;0.68;;;21.60;99.90;;;;;;4991936;28;20202;-65
2023/09/18 10:38:38;;;;;;;2.75;0.90;;;21.60;99.90;;;;;;4992108;28;20201;-65
2023/09/18 10:41:08;;;;;;;2.70;0.70;;;21.50;99.90;;;;;;4992458;28;20221;-64
2023/09/18 10:43:36;;;;;;;2.95;0.70;;;21.50;99.90;;;;;;4992424;28;20206;-64
2023/09/18 10:46:06;;;;;;;0.60;0.60;;;21.50;99.90;;;;;;5003088;28;20225;-65
2023/09/18 10:48:34;;;;;;;4.70;0.70;;;21.40;99.90;;;;;;5002804;28;20304;-64
2023/09/18 10:51:05;;;;;;;2.08;0.80;;;21.40;99.90;;;;;;4991679;28;20309;-65
2023/09/18 10:53:33;;;;;;;3.05;0.60;;;21.40;99.90;;;;;;4991607;28;20194;-64
2023/09/18 10:56:04;;;;;;;4.68;0.73;;;21.50;99.90;;;;;;4991647;28;20201;-64
2023/09/18 10:58:35;;;;;;;2.75;0.63;;;21.50;99.90;;;;;;4991642;28;20286;-64
2023/09/18 11:01:03;;;;;;;0.68;0.60;;;21.60;99.90;;;;;;4984716;28;20564;-65
2023/09/18 11:03:34;;;;;;;0.80;0.70;;;21.50;99.90;;;;;;4983904;28;20198;-64
2023/09/18 11:06:09;;;;;;;0.80;0.60;;;21.60;99.90;;;;;;4988252;28;20578;-64
2023/09/18 11:08:45;;;;;;;0.90;0.70;;;21.60;99.90;;;;;;5002323;28;20212;-64
2023/09/18 11:11:16;;;;;;;5.38;0.88;;;21.60;99.90;;;;;;4991559;28;20244;-64
2023/09/18 11:13:46;;;;;;;2.15;0.70;;;21.70;99.90;;;;;;4999410;28;20700;-63
2023/09/18 11:16:20;;;;;;;0.90;0.50;;;21.70;99.90;;;;;;4999625;28;20665;-65
2023/09/18 11:18:54;;;;;;;1.00;0.73;;;21.80;99.90;;;;;;4990444;28;20229;-64
2023/09/18 11:21:25;;;;;;;2.17;0.85;;;21.80;99.90;;;;;;4991535;28;20202;-64
2023/09/18 11:24:00;;;;;;;0.70;0.60;;;21.80;99.90;;;;;;4991230;28;20389;-64
2023/09/18 11:26:31;;;;;;;0.70;0.60;;;21.70;99.90;;;;;;4991000;28;20222;-64
2023/09/18 11:29:04;;;;;;;0.70;0.60;;;21.80;99.90;;;;;;4991132;28;20233;-64
2023/09/18 11:31:47;;;;;;;2.75;0.80;;;21.80;99.90;;;;;;4991423;28;20210;-65
2023/09/18 11:34:22;;;;;;;0.80;0.60;;;21.80;99.90;;;;;;4998853;28;20205;-64
2023/09/18 11:36:50;;;;;;;1.00;0.43;;;21.80;99.90;;;;;;4997605;28;20248;-65
2023/09/18 11:39:37;;;;;;;2.17;0.80;;;21.80;99.90;;;;;;4997789;28;20229;-64
2023/09/18 11:42:10;;;;;;;0.77;0.50;;;21.90;99.90;;;;;;4990206;28;20212;-64
2023/09/18 11:44:45;;;;;;;0.57;0.43;;;22.00;99.90;;;;;;4998181;28;20578;-64
2023/09/18 11:47:19;;;;;;;1.60;0.80;;;22.10;99.90;;;;;;5003348;28;20306;-64
2023/09/18 11:49:54;;;;;;;0.90;0.60;;;22.20;99.90;;;;;;4997595;28;20290;-64
2023/09/18 11:52:24;;;;;;;1.08;0.70;;;22.20;99.90;;;;;;4997783;28;20209;-65
2023/09/18 11:54:54;;;;;;;2.05;0.65;;;22.20;99.90;;;;;;4997155;28;20652;-64
2023/09/18 11:57:22;;;;;;;2.00;0.90;;;22.30;99.90;;;;;;4997432;28;20668;-65
2023/09/18 11:59:51;;;;;;;2.08;0.70;;;22.30;99.90;;;;;;4997429;28;20225;-64
2023/09/18 12:02:27;;;;;;;0.90;0.70;;;22.40;99.90;;;;;;4997319;28;20219;-64
2023/09/18 12:04:57;;;;;;;1.00;0.63;;;22.40;99.90;;;;;;4997241;28;20593;-64
2023/09/18 12:07:25;;;;;;;0.63;0.60;;;22.40;99.90;;;;;;5011486;28;20229;-64
2023/09/18 12:09:54;;;;;;;2.00;1.10;;;22.40;99.90;;;;;;4998715;28;20607;-65
2023/09/18 12:12:22;;;;;;;0.70;0.70;;;22.40;99.90;;;;;;4997524;28;20256;-65
2023/09/18 12:14:53;;;;;;;2.00;0.77;;;22.40;99.90;;;;;;5005173;28;20204;-65
2023/09/18 12:17:21;;;;;;;2.65;0.60;;;22.40;99.90;;;;;;4996720;28;20206;-65
2023/09/18 12:19:54;;;;;;;2.08;0.65;;;22.60;99.90;;;;;;4996902;28;20240;-65
2023/09/18 12:22:31;;;;;;;1.25;0.82;;;22.80;99.90;;;;;;4997436;28;20285;-65
2023/09/18 12:25:12;;;;;;;0.93;0.77;;;23.00;99.90;;;;;;4997069;28;20241;-64
2023/09/18 12:27:44;;;;;;;1.02;0.93;;;23.60;99.90;;;;;;5005464;28;20628;-65
2023/09/18 12:30:14;;;;;;;1.00;0.90;;;24.30;99.90;;;;;;5004253;28;20676;-64
2023/09/18 12:32:43;;;;;;;0.90;0.70;;;24.80;99.90;;;;;;5004459;28;20623;-64
2023/09/18 12:35:15;;;;;;;1.63;1.00;;;25.10;99.90;;;;;;4997094;28;20206;-65
2023/09/18 12:37:44;;;;;;;1.17;0.70;;;25.40;99.90;;;;;;4996949;28;20210;-64
2023/09/18 12:40:23;;;;;;;1.42;0.70;;;25.80;99.90;;;;;;4997163;28;20641;-65
2023/09/18 12:42:53;;;;;;;1.23;0.70;;;26.40;99.90;;;;;;4996980;28;20339;-65
2023/09/18 12:45:21;;;;;;;1.45;0.80;;;26.80;99.90;;;;;;4999586;28;20280;-65
2023/09/18 12:47:50;;;;;;;1.27;0.80;;;26.90;99.90;;;;;;4995367;28;20722;-65
2023/09/18 12:50:19;;;;;;;1.45;0.85;;;26.70;99.90;;;;;;4994193;28;20592;-64
2023/09/18 12:52:48;;;;;;;0.85;0.60;;;26.40;99.90;;;;;;4994061;28;20249;-65
2023/09/18 12:55:24;;;;;;;9.90;0.90;;;26.40;99.90;;;;;;4993773;28;20209;-65
2023/09/18 12:57:53;;;;;;;0.90;0.80;;;25.90;99.90;;;;;;4993600;28;20715;-65
2023/09/18 13:00:22;;;;;;;2.03;0.60;;;25.50;99.90;;;;;;4993953;28;20253;-65
2023/09/18 13:02:55;;;;;;;2.10;0.73;;;25.50;99.90;;;;;;4993111;28;20198;-64